Manistee, MI

5:56 AM EST on February 22, 2017 (GMT -0500)
Manistee County-Blacker | | Change Station
Active Advisory: Dense Fog Advisory

Elev 620 ft 44.27 °N, 86.25 °W | Updated 1 hour ago

Fog
Fog
46 °F
Feels Like 44 °F
N
5
Wind Variable Wind from East

Today
High -- | Low -- °F
--% Chance of Precip.
Yesterday
High -- | Low -- °F
Precip. -- in
Pressure 29.84 in
Visibility 0.2 miles
Clouds Overcast 300 ft
Windchill 44 °F
Dew Point 45 °F
Humidity 96%
Rainfall 0.00 in
Snow Depth Not available.
7:33 AM 6:24 PM
Waning Crescent, 18% visible
METAR KMBL 220956Z AUTO 10004KT 1/4SM FG OVC003 08/07 A2977 RMK AO2 SLP105 T00780072
Pressure 29.84 in
Visibility 0.2 miles
Clouds Overcast 300 ft
Windchill 44 °F
Dew Point 45 °F
Humidity 96%
Rainfall 0.00 in
Snow Depth Not available.
7:33 AM 6:24 PM
Waning Crescent, 18% visible
METAR KMBL 220956Z AUTO 10004KT 1/4SM FG OVC003 08/07 A2977 RMK AO2 SLP105 T00780072

Get Your Daily Forecast Email!

Thanks for signing up!

Be on the lookout for a verification email in your inbox.

You'll start receiving the daily forecast at 8 AM.

×

10-Day Weather Forecast

Almanac

Astronomy

Feb. 22, 2017 Rise Set
Actual Time
Civil Twilight
Nautical Twilight
Astronomical Twilight
Moon
Length of Visible Light
Length of Day
Tomorrow will be .
, % of the Moon is Illuminated

Today's Extremes

State Highs State Lows

Community

WunderPhotos

Upload Photos

1,962,540 photos uploaded!

WunderBlog® & News

Nearby

Air Quality

  Air Quality AQ Index Pollutant
Not available.

Snow Depth

Station Depth Elevation

Earthquake Activity

City Distance Mag. Time & Date
Minimum magnitude displayed is 2.5.

Coastal Water Temperatures

Place Temperature

Stations

Nearby Weather Stations

Station Location Temp. Windchill Dew Point Humidity Wind Precip. Elev Updated Type
                   

Watches & Warnings

Dense Fog Advisory
Issued: 4:44 AM EST Feb. 22, 2017 – National Weather Service

... Dense fog advisory in effect until 10 am EST this morning...

The National Weather Service in Gaylord has issued a dense fog
advisory, which is in effect until 10 am EST this morning.

* Visibility... reduced to a quarter mile or less from Manistee to
Cadillac and Lake City.

* Impacts... expect slow travel conditions for the morning
commute.

Precautionary/preparedness actions...

A dense fog advisory means visibilities will frequently be
reduced to less than one quarter mile. If driving... slow down...
use your headlights... and leave plenty of distance ahead of you.
Use extra care near school bus stops.